Time,TemperatureF,DewpointF,PressureIn,WindDirection,WindDirectionDegrees,WindSpeedMPH,WindSpeedGustMPH,Humidity,HourlyPrecipIn,Conditions,Clouds,dailyrainin,SoftwareType,DateUTC
2013-08-25 00:00:00,67.1,52.3,29.80,WSW,248,5.0,8.0,59,0.00,,CLR,0.00,VWS V14.01,2013-08-25 07:00:00,
2013-08-25 00:30:00,66.2,53.7,29.80,WSW,248,4.0,6.0,64,0.00,,CLR,0.00,VWS V14.01,2013-08-25 07:30:00,
2013-08-25 01:00:00,65.2,53.6,29.80,WSW,248,3.0,7.0,66,0.00,,CLR,0.00,VWS V14.01,2013-08-25 08:00:00,
2013-08-25 01:30:00,63.9,53.5,29.80,WSW,248,3.0,6.0,69,0.00,,CLR,0.00,VWS V14.01,2013-08-25 08:30:00,
2013-08-25 02:00:00,63.4,52.3,29.80,WSW,248,4.0,8.0,67,0.00,,CLR,0.00,VWS V14.01,2013-08-25 09:00:00,
2013-08-25 02:30:00,64.4,50.7,29.82,WSW,248,5.0,8.0,61,0.00,,CLR,0.00,VWS V14.01,2013-08-25 09:30:00,
2013-08-25 03:00:00,64.1,50.8,29.82,WSW,248,4.0,6.0,62,0.00,,CLR,0.00,VWS V14.01,2013-08-25 10:00:00,
2013-08-25 03:30:00,63.7,50.5,29.82,WSW,248,3.0,6.0,62,0.00,,CLR,0.00,VWS V14.01,2013-08-25 10:30:00,
2013-08-25 04:00:00,63.1,50.7,29.83,WSW,248,3.0,6.0,64,0.00,,CLR,0.00,VWS V14.01,2013-08-25 11:00:00,
2013-08-25 04:30:00,62.6,51.5,29.83,WSW,248,3.0,7.0,67,0.00,,CLR,0.00,VWS V14.01,2013-08-25 11:30:00,
2013-08-25 05:00:00,61.2,52.5,29.85,WSW,248,4.0,8.0,73,0.00,,CLR,0.00,VWS V14.01,2013-08-25 12:00:00,
2013-08-25 05:30:00,59.6,51.7,29.85,SW,225,5.0,8.0,75,0.00,,CLR,0.00,VWS V14.01,2013-08-25 12:30:00,
2013-08-25 06:00:00,59.2,51.7,29.85,SSW,202,3.0,6.0,76,0.00,,CLR,0.00,VWS V14.01,2013-08-25 13:00:00,
2013-08-25 06:30:00,58.9,52.1,29.86,SSW,202,4.0,6.0,78,0.00,,CLR,0.00,VWS V14.01,2013-08-25 13:30:00,
2013-08-25 07:00:00,58.3,52.2,29.87,SSW,202,4.0,6.0,80,0.00,,CLR,0.00,VWS V14.01,2013-08-25 14:00:00,
2013-08-25 07:30:00,59.3,52.5,29.88,SSW,202,2.0,4.0,78,0.00,,CLR,0.00,VWS V14.01,2013-08-25 14:30:00,
2013-08-25 08:00:00,60.4,52.8,29.87,SSW,202,2.0,4.0,76,0.00,,CLR,0.00,VWS V14.01,2013-08-25 15:00:00,
2013-08-25 08:30:00,62.9,52.2,29.88,SSW,202,2.0,4.0,68,0.00,,CLR,0.00,VWS V14.01,2013-08-25 15:30:00,
2013-08-25 09:00:00,65.3,51.5,29.87,SSW,202,1.0,3.0,61,0.00,,CLR,0.00,VWS V14.01,2013-08-25 16:00:00,
2013-08-25 09:30:00,67.2,51.9,29.88,SSW,202,2.0,4.0,58,0.00,,CLR,0.00,VWS V14.01,2013-08-25 16:30:00,
2013-08-25 10:00:00,69.0,52.2,29.88,SSW,202,3.0,7.0,55,0.00,,CLR,0.00,VWS V14.01,2013-08-25 17:00:00,
2013-08-25 10:30:00,70.5,49.3,29.89,SSW,202,4.0,7.0,47,0.00,,CLR,0.00,VWS V14.01,2013-08-25 17:30:00,
2013-08-25 11:00:00,72.5,45.5,29.89,SSW,202,3.0,7.0,38,0.00,,CLR,0.00,VWS V14.01,2013-08-25 18:00:00,
2013-08-25 11:30:00,75.4,50.1,29.88,SSW,202,3.0,6.0,41,0.00,,CLR,0.00,VWS V14.01,2013-08-25 18:30:00,
2013-08-25 12:00:00,76.7,49.2,29.87,SSW,202,3.0,5.0,38,0.00,,CLR,0.00,VWS V14.01,2013-08-25 19:00:00,
2013-08-25 12:30:00,77.2,45.9,29.86,SSW,202,4.0,9.0,33,0.00,,CLR,0.00,VWS V14.01,2013-08-25 19:30:00,
2013-08-25 13:00:00,78.2,44.3,29.85,SW,225,4.0,8.0,30,0.00,,CLR,0.00,VWS V14.01,2013-08-25 20:00:00,
2013-08-25 13:30:00,79.2,43.3,29.85,SW,225,3.0,7.0,28,0.00,,CLR,0.00,VWS V14.01,2013-08-25 20:30:00,
2013-08-25 14:00:00,80.8,44.7,29.84,SW,225,3.0,8.0,28,0.00,,CLR,0.00,VWS V14.01,2013-08-25 21:00:00,
2013-08-25 14:30:00,81.6,45.4,29.83,SW,225,3.0,7.0,28,0.00,,CLR,0.00,VWS V14.01,2013-08-25 21:30:00,
2013-08-25 15:00:00,81.2,46.0,29.81,SW,225,3.0,7.0,29,0.00,,CLR,0.00,VWS V14.01,2013-08-25 22:00:00,
2013-08-25 15:30:00,81.4,46.1,29.81,WSW,248,3.0,8.0,29,0.00,,CLR,0.00,VWS V14.01,2013-08-25 22:30:00,
2013-08-25 16:00:00,81.3,42.2,29.80,WSW,248,3.0,6.0,25,0.00,,CLR,0.00,VWS V14.01,2013-08-25 23:00:00,
2013-08-25 16:30:00,82.3,40.8,29.80,WSW,248,2.0,6.0,23,0.00,,CLR,0.00,VWS V14.01,2013-08-25 23:30:00,
2013-08-25 17:00:00,81.8,44.6,29.78,WSW,248,3.0,7.0,27,0.00,,CLR,0.00,VWS V14.01,2013-08-26 00:00:00,
2013-08-25 17:30:00,80.1,44.1,29.77,West,270,5.0,8.0,28,0.00,,CLR,0.00,VWS V14.01,2013-08-26 00:30:00,
2013-08-25 18:00:00,79.4,45.3,29.76,West,270,4.0,9.0,30,0.00,,CLR,0.00,VWS V14.01,2013-08-26 01:00:00,
2013-08-25 18:30:00,78.2,46.8,29.75,West,270,4.0,10.0,33,0.00,,CLR,0.00,VWS V14.01,2013-08-26 01:30:00,
2013-08-25 19:00:00,77.2,47.5,29.79,West,270,8.0,15.0,35,0.00,,CLR,0.00,VWS V14.01,2013-08-26 02:00:00,
2013-08-25 19:30:00,72.3,67.2,29.91,South,180,21.0,45.0,84,0.00,,CLR,0.00,VWS V14.01,2013-08-26 02:30:00,
2013-08-25 20:00:00,62.9,61.5,29.78,South,180,13.0,36.0,95,0.01,,CLR,0.01,VWS V14.01,2013-08-26 03:00:00,
2013-08-25 20:30:00,63.1,61.9,29.84,SW,225,8.0,19.0,96,0.01,,CLR,0.01,VWS V14.01,2013-08-26 03:30:00,
2013-08-25 21:00:00,62.6,61.5,29.83,SSW,202,4.0,9.0,96,0.01,,CLR,0.01,VWS V14.01,2013-08-26 04:00:00,
2013-08-25 21:30:00,62.6,61.7,29.83,SSW,202,2.0,7.0,97,0.00,,CLR,0.01,VWS V14.01,2013-08-26 04:30:00,
2013-08-25 22:00:00,61.3,60.4,29.82,South,180,4.0,6.0,97,0.00,,CLR,0.01,VWS V14.01,2013-08-26 05:00:00,
2013-08-25 22:30:00,60.4,59.5,29.83,South,180,4.0,7.0,97,0.00,,CLR,0.01,VWS V14.01,2013-08-26 05:30:00,
2013-08-25 23:00:00,59.8,59.0,29.85,SSE,158,6.0,9.0,97,0.00,,CLR,0.01,VWS V14.01,2013-08-26 06:00:00,
2013-08-25 23:30:00,60.2,59.6,29.85,SSE,158,7.0,12.0,98,0.00,,CLR,0.01,VWS V14.01,2013-08-26 06:30:00,